Time;durP1;ratioP1;P1;durP2;ratioP2;P2;SDS_P1;SDS_P2;PMS_P1;PMS_P2;Temp;Humidity;BMP_temperature;BMP_pressure;BME280_temperature;BME280_humidity;BME280_pressure;Samples;Min_cycle;Max_cycle;Signal;HPM_P1;HPM_P2
2023/09/09 00:00:39;;;;;;;24.95;17.00;;;;;;;;;;4990958;28;20084;-67
2023/09/09 00:03:06;;;;;;;26.85;16.88;;;;;;;;;;4986374;28;20034;-66
2023/09/09 00:05:33;;;;;;;25.63;16.95;;;;;;;;;;4996964;28;20466;-67
2023/09/09 00:07:59;;;;;;;32.00;18.98;;;;;;;;;;4993143;28;20519;-66
2023/09/09 00:10:24;;;;;;;31.17;18.15;;;;;;;;;;4976061;28;20027;-67
2023/09/09 00:12:49;;;;;;;31.90;20.65;;;;;;;;;;4997713;28;20038;-67
2023/09/09 00:15:15;;;;;;;24.60;16.75;;;;;;;;;;4989813;28;20065;-67
2023/09/09 00:17:40;;;;;;;25.83;18.00;;;;;;;;;;4976979;28;20034;-67
2023/09/09 00:20:09;;;;;;;25.13;17.17;;;;;;;;;;4990207;28;20026;-67
2023/09/09 00:22:34;;;;;;;26.05;16.95;;;;;;;;;;4998348;28;20030;-67
2023/09/09 00:24:59;;;;;;;28.17;18.00;;;;;;;;;;4987590;28;20432;-67
2023/09/09 00:27:25;;;;;;;26.92;17.65;;;;;;;;;;4995769;28;20056;-67
2023/09/09 00:29:50;;;;;;;27.17;17.23;;;;;;;;;;4997758;28;20034;-67
2023/09/09 00:32:15;;;;;;;31.33;20.58;;;;;;;;;;4990659;28;20042;-67
2023/09/09 00:34:41;;;;;;;29.10;18.98;;;;;;;;;;5001438;28;20084;-67
2023/09/09 00:37:06;;;;;;;31.15;18.88;;;;;;;;;;4995813;28;20085;-67
2023/09/09 00:39:32;;;;;;;29.63;18.17;;;;;;;;;;4996284;28;20043;-67
2023/09/09 00:41:57;;;;;;;26.95;17.63;;;;;;;;;;5001515;28;20033;-67
2023/09/09 00:44:22;;;;;;;20.60;14.38;;;;;;;;;;5001902;28;20092;-67
2023/09/09 00:46:48;;;;;;;22.77;14.52;;;;;;;;;;4995448;28;20034;-67
2023/09/09 00:49:14;;;;;;;26.83;14.57;;;;;;;;;;4994391;28;20582;-67
2023/09/09 00:51:44;;;;;;;22.40;14.63;;;;;;;;;;4999941;28;20045;-67
2023/09/09 00:54:10;;;;;;;26.65;15.32;;;;;;;;;;4995295;28;20048;-67
2023/09/09 00:56:35;;;;;;;26.13;17.10;;;;;;;;;;4996493;28;20121;-67
2023/09/09 00:59:01;;;;;;;23.98;15.70;;;;;;;;;;5001384;28;20109;-67
2023/09/09 01:01:27;;;;;;;22.67;15.68;;;;;;;;;;4984038;28;20032;-67
2023/09/09 01:03:53;;;;;;;24.88;16.45;;;;;;;;;;4982584;28;20037;-67
2023/09/09 01:06:22;;;;;;;26.83;16.23;;;;;;;;;;5001220;28;20038;-66
2023/09/09 01:08:48;;;;;;;31.05;18.77;;;;;;;;;;5001351;28;20038;-67
2023/09/09 01:11:13;;;;;;;27.05;17.77;;;;;;;;;;4997371;28;20407;-67
2023/09/09 01:13:39;;;;;;;25.02;17.25;;;;;;;;;;4994991;28;20594;-67
2023/09/09 01:16:05;;;;;;;28.95;18.17;;;;;;;;;;4999177;28;20045;-66
2023/09/09 01:18:33;;;;;;;28.08;18.60;;;;;;;;;;4993127;28;20027;-67
2023/09/09 01:21:06;;;;;;;29.00;18.52;;;;;;;;;;4976774;28;20719;-67
2023/09/09 01:23:32;;;;;;;32.10;20.10;;;;;;;;;;4972634;28;20664;-67
2023/09/09 01:25:57;;;;;;;30.38;18.88;;;;;;;;;;4993958;28;20159;-66
2023/09/09 01:28:22;;;;;;;28.60;18.10;;;;;;;;;;4993883;28;20510;-66
2023/09/09 01:30:49;;;;;;;25.60;17.42;;;;;;;;;;4994749;28;20240;-66
2023/09/09 01:33:15;;;;;;;27.60;18.75;;;;;;;;;;4981936;28;20042;-67
2023/09/09 01:35:40;;;;;;;29.17;18.05;;;;;;;;;;4994378;28;20565;-66
2023/09/09 01:38:06;;;;;;;28.35;18.00;;;;;;;;;;5001814;28;20065;-67
2023/09/09 01:40:31;;;;;;;28.08;17.30;;;;;;;;;;5001706;28;20061;-66
2023/09/09 01:42:56;;;;;;;29.88;17.15;;;;;;;;;;4995442;28;20408;-66
2023/09/09 01:45:23;;;;;;;26.50;16.58;;;;;;;;;;4993903;28;20083;-67
2023/09/09 01:47:48;;;;;;;26.48;17.52;;;;;;;;;;4999264;28;20042;-67
2023/09/09 01:50:14;;;;;;;26.23;15.98;;;;;;;;;;5000899;28;20496;-66
2023/09/09 01:52:39;;;;;;;27.85;16.88;;;;;;;;;;4994263;28;20033;-67
2023/09/09 01:55:05;;;;;;;28.08;15.55;;;;;;;;;;4998807;28;20056;-66
2023/09/09 01:57:30;;;;;;;22.88;14.98;;;;;;;;;;4996100;28;20033;-67
2023/09/09 01:59:56;;;;;;;25.85;15.35;;;;;;;;;;4992343;28;20034;-67
2023/09/09 02:02:22;;;;;;;28.90;15.38;;;;;;;;;;4992630;28;20046;-67
2023/09/09 02:04:47;;;;;;;26.65;15.63;;;;;;;;;;4999550;28;20022;-67
2023/09/09 02:07:12;;;;;;;34.97;19.30;;;;;;;;;;4976107;28;20613;-67
2023/09/09 02:09:38;;;;;;;31.10;17.88;;;;;;;;;;4998203;28;20128;-67
2023/09/09 02:12:04;;;;;;;32.75;20.08;;;;;;;;;;5000286;28;20053;-67
2023/09/09 02:14:30;;;;;;;33.80;19.58;;;;;;;;;;4996180;28;20833;-67
2023/09/09 02:16:56;;;;;;;33.50;21.13;;;;;;;;;;4994204;28;20033;-67
2023/09/09 02:19:21;;;;;;;36.20;21.45;;;;;;;;;;4988364;28;20723;-67
2023/09/09 02:21:47;;;;;;;37.45;21.80;;;;;;;;;;4996587;28;20093;-66
2023/09/09 02:24:12;;;;;;;34.85;21.80;;;;;;;;;;4987681;28;20045;-67
2023/09/09 02:26:37;;;;;;;40.20;22.58;;;;;;;;;;4999486;28;20535;-67
2023/09/09 02:29:03;;;;;;;38.55;22.85;;;;;;;;;;4998928;28;20143;-67
2023/09/09 02:31:28;;;;;;;34.22;21.00;;;;;;;;;;4994183;28;20037;-67
2023/09/09 02:33:53;;;;;;;38.25;22.75;;;;;;;;;;4981496;28;20107;-66
2023/09/09 02:36:19;;;;;;;40.35;24.13;;;;;;;;;;5000655;28;20034;-67
2023/09/09 02:38:44;;;;;;;41.70;25.10;;;;;;;;;;4998727;28;20029;-67
2023/09/09 02:41:10;;;;;;;41.67;24.38;;;;;;;;;;4992561;28;20531;-67
2023/09/09 02:43:36;;;;;;;38.67;22.58;;;;;;;;;;4994592;28;20029;-67
2023/09/09 02:46:03;;;;;;;44.38;24.85;;;;;;;;;;4999857;28;20038;-67
2023/09/09 02:48:28;;;;;;;40.92;25.88;;;;;;;;;;5000204;28;20060;-67
2023/09/09 02:50:54;;;;;;;40.40;23.23;;;;;;;;;;4974291;28;20415;-67
2023/09/09 02:53:19;;;;;;;41.95;24.30;;;;;;;;;;4992887;28;20455;-67
2023/09/09 02:55:44;;;;;;;41.53;23.70;;;;;;;;;;5000001;28;20022;-66
2023/09/09 02:58:12;;;;;;;41.28;23.45;;;;;;;;;;4997550;28;20096;-66
2023/09/09 03:00:38;;;;;;;39.05;23.55;;;;;;;;;;4977673;28;20062;-67
2023/09/09 03:03:05;;;;;;;42.67;25.30;;;;;;;;;;4981726;28;20046;-67
2023/09/09 03:05:34;;;;;;;42.28;24.88;;;;;;;;;;4999671;28;20049;-66
2023/09/09 03:07:59;;;;;;;40.58;24.75;;;;;;;;;;4979779;28;20177;-67
2023/09/09 03:10:24;;;;;;;42.05;24.25;;;;;;;;;;5000347;28;20105;-67
2023/09/09 03:12:50;;;;;;;40.28;23.67;;;;;;;;;;4997983;28;20523;-67
2023/09/09 03:15:15;;;;;;;37.72;22.90;;;;;;;;;;4991477;28;20034;-67
2023/09/09 03:17:40;;;;;;;35.25;21.73;;;;;;;;;;4994101;28;20088;-66
2023/09/09 03:20:07;;;;;;;37.00;22.25;;;;;;;;;;4992243;28;20117;-67
2023/09/09 03:22:33;;;;;;;40.55;24.00;;;;;;;;;;4998365;28;20022;-66
2023/09/09 03:24:58;;;;;;;38.78;23.38;;;;;;;;;;4990567;28;20056;-66
2023/09/09 03:27:23;;;;;;;43.78;23.52;;;;;;;;;;4994581;28;20141;-67
2023/09/09 03:29:49;;;;;;;43.22;24.27;;;;;;;;;;4998869;28;20043;-67
2023/09/09 03:32:15;;;;;;;39.50;24.30;;;;;;;;;;4996640;28;20034;-67
2023/09/09 03:34:40;;;;;;;42.22;24.13;;;;;;;;;;4993599;28;20553;-67
2023/09/09 03:37:06;;;;;;;43.15;24.58;;;;;;;;;;4992148;28;20415;-66
2023/09/09 03:39:32;;;;;;;54.80;30.50;;;;;;;;;;4995864;28;20101;-66
2023/09/09 03:41:57;;;;;;;42.13;25.13;;;;;;;;;;4999080;28;20018;-67
2023/09/09 03:44:22;;;;;;;39.30;24.05;;;;;;;;;;4993032;28;20594;-67
2023/09/09 03:46:48;;;;;;;43.83;25.75;;;;;;;;;;4991472;28;20078;-67
2023/09/09 03:49:13;;;;;;;43.53;24.80;;;;;;;;;;4997370;28;20046;-67
2023/09/09 03:51:38;;;;;;;45.38;24.27;;;;;;;;;;4989490;28;20041;-66
2023/09/09 03:54:05;;;;;;;42.30;24.10;;;;;;;;;;5000694;28;20030;-67
2023/09/09 03:56:30;;;;;;;39.90;24.05;;;;;;;;;;4991605;28;20049;-67
2023/09/09 03:58:55;;;;;;;39.15;23.60;;;;;;;;;;4995705;28;20022;-66
2023/09/09 04:01:21;;;;;;;41.30;25.00;;;;;;;;;;4998946;28;20017;-66
2023/09/09 04:03:46;;;;;;;47.42;27.23;;;;;;;;;;4994742;28;20044;-66
2023/09/09 04:06:12;;;;;;;45.33;26.42;;;;;;;;;;4991613;28;20034;-66
2023/09/09 04:08:39;;;;;;;50.72;28.33;;;;;;;;;;4991828;28;20032;-66
2023/09/09 04:11:05;;;;;;;46.25;26.45;;;;;;;;;;4992597;28;20060;-67
2023/09/09 04:13:31;;;;;;;48.63;29.08;;;;;;;;;;4999241;28;20062;-66
2023/09/09 04:15:58;;;;;;;49.78;27.67;;;;;;;;;;4997918;28;20129;-67
2023/09/09 04:18:24;;;;;;;50.30;28.60;;;;;;;;;;4979519;28;20092;-67
2023/09/09 04:20:50;;;;;;;52.00;29.13;;;;;;;;;;4992133;28;20033;-67
2023/09/09 04:23:16;;;;;;;49.78;29.02;;;;;;;;;;4997372;28;20026;-66
2023/09/09 04:25:42;;;;;;;53.45;30.33;;;;;;;;;;4996240;28;20025;-66
2023/09/09 04:28:10;;;;;;;53.90;28.42;;;;;;;;;;4992704;28;20417;-67
2023/09/09 04:30:36;;;;;;;47.80;27.77;;;;;;;;;;4993546;28;20066;-67
2023/09/09 04:33:02;;;;;;;49.53;29.05;;;;;;;;;;4998294;28;20186;-67
2023/09/09 04:35:27;;;;;;;54.42;30.08;;;;;;;;;;4998564;28;20026;-67
2023/09/09 04:37:53;;;;;;;52.20;29.30;;;;;;;;;;4993276;28;20869;-66
2023/09/09 04:40:19;;;;;;;53.42;30.00;;;;;;;;;;4992736;28;20050;-66
2023/09/09 04:42:44;;;;;;;50.95;29.17;;;;;;;;;;4998418;28;20073;-66
2023/09/09 04:45:10;;;;;;;49.67;27.13;;;;;;;;;;4997528;28;20106;-67
2023/09/09 04:47:35;;;;;;;54.03;29.13;;;;;;;;;;4985565;28;20030;-66
2023/09/09 04:50:01;;;;;;;53.75;30.42;;;;;;;;;;4997603;28;20025;-66
2023/09/09 04:52:26;;;;;;;55.63;29.98;;;;;;;;;;4992226;28;20026;-67
2023/09/09 04:54:52;;;;;;;48.58;28.20;;;;;;;;;;4991014;28;20034;-67
2023/09/09 04:57:17;;;;;;;54.90;30.75;;;;;;;;;;4991802;28;20038;-67
2023/09/09 04:59:42;;;;;;;54.28;31.20;;;;;;;;;;4990215;28;20611;-66
2023/09/09 05:02:08;;;;;;;56.72;31.75;;;;;;;;;;4997916;28;20033;-66
2023/09/09 05:04:33;;;;;;;54.03;29.45;;;;;;;;;;4998505;28;20047;-67
2023/09/09 05:06:59;;;;;;;49.97;27.77;;;;;;;;;;4986710;28;20053;-67
2023/09/09 05:09:25;;;;;;;49.67;30.42;;;;;;;;;;4996674;28;20511;-67
2023/09/09 05:11:50;;;;;;;57.08;31.55;;;;;;;;;;4991068;28;20076;-67
2023/09/09 05:14:16;;;;;;;55.97;29.75;;;;;;;;;;4992039;28;20496;-67
2023/09/09 05:16:41;;;;;;;53.45;29.33;;;;;;;;;;4998022;28;20030;-67
2023/09/09 05:19:07;;;;;;;49.63;28.90;;;;;;;;;;4998697;28;20120;-67
2023/09/09 05:21:32;;;;;;;53.45;29.98;;;;;;;;;;4994712;28;20419;-66
2023/09/09 05:23:57;;;;;;;52.97;30.80;;;;;;;;;;4994478;28;20061;-66
2023/09/09 05:26:23;;;;;;;55.47;31.20;;;;;;;;;;5001156;28;20038;-67
2023/09/09 05:28:48;;;;;;;55.95;32.50;;;;;;;;;;4998426;28;20133;-67
2023/09/09 05:31:15;;;;;;;51.80;30.08;;;;;;;;;;4994734;28;20137;-66
2023/09/09 05:33:40;;;;;;;55.30;31.17;;;;;;;;;;4997215;28;20049;-67
2023/09/09 05:36:06;;;;;;;52.45;30.70;;;;;;;;;;5000749;28;20038;-67
2023/09/09 05:38:31;;;;;;;54.10;32.00;;;;;;;;;;4998671;28;20458;-67
2023/09/09 05:40:57;;;;;;;56.47;31.38;;;;;;;;;;4993860;28;20026;-67
2023/09/09 05:43:22;;;;;;;54.00;30.77;;;;;;;;;;4997078;28;20034;-67
2023/09/09 05:45:47;;;;;;;53.78;29.15;;;;;;;;;;5000731;28;20154;-66
2023/09/09 05:48:13;;;;;;;63.30;34.08;;;;;;;;;;5002847;28;20034;-67
2023/09/09 05:50:38;;;;;;;59.80;32.17;;;;;;;;;;5000620;28;20045;-67
2023/09/09 05:53:04;;;;;;;56.55;32.97;;;;;;;;;;4986329;28;20061;-66
2023/09/09 05:55:30;;;;;;;62.58;34.00;;;;;;;;;;5001175;28;20053;-67
2023/09/09 05:57:55;;;;;;;56.03;32.85;;;;;;;;;;4998549;28;20034;-66
2023/09/09 06:00:20;;;;;;;52.05;30.67;;;;;;;;;;4994432;28;20042;-67
2023/09/09 06:02:46;;;;;;;52.85;31.20;;;;;;;;;;4995407;28;20034;-67
2023/09/09 06:05:13;;;;;;;58.33;31.48;;;;;;;;;;4998737;28;20534;-67
2023/09/09 06:07:39;;;;;;;54.60;30.77;;;;;;;;;;4995747;28;20673;-67
2023/09/09 06:10:05;;;;;;;54.95;30.70;;;;;;;;;;5000283;28;20042;-67
2023/09/09 06:12:30;;;;;;;54.25;31.30;;;;;;;;;;4998442;28;20053;-66
2023/09/09 06:14:56;;;;;;;66.72;32.60;;;;;;;;;;4992691;28;20500;-67
2023/09/09 06:17:21;;;;;;;62.50;34.38;;;;;;;;;;4995247;28;20629;-67
2023/09/09 06:19:46;;;;;;;66.57;34.60;;;;;;;;;;5000577;28;20084;-67
2023/09/09 06:22:12;;;;;;;59.78;32.60;;;;;;;;;;4998827;28;20629;-67
2023/09/09 06:24:37;;;;;;;62.75;34.35;;;;;;;;;;4990307;28;20034;-67
2023/09/09 06:27:03;;;;;;;56.13;31.25;;;;;;;;;;4998298;28;20096;-67
2023/09/09 06:29:29;;;;;;;54.30;32.78;;;;;;;;;;4998534;28;20089;-67
2023/09/09 06:31:54;;;;;;;56.28;32.25;;;;;;;;;;4996104;28;20034;-67
2023/09/09 06:34:20;;;;;;;59.28;33.67;;;;;;;;;;4993882;28;20037;-67
2023/09/09 06:36:46;;;;;;;58.92;33.00;;;;;;;;;;4997280;28;20046;-67
2023/09/09 06:39:11;;;;;;;59.70;33.28;;;;;;;;;;4999722;28;20060;-67
2023/09/09 06:41:36;;;;;;;57.58;32.08;;;;;;;;;;4996048;28;20030;-67
2023/09/09 06:44:03;;;;;;;52.83;30.65;;;;;;;;;;4989822;28;20026;-67
2023/09/09 06:46:28;;;;;;;57.60;32.15;;;;;;;;;;4996947;28;20476;-67
2023/09/09 06:48:54;;;;;;;58.95;33.58;;;;;;;;;;4991672;28;20034;-67
2023/09/09 06:51:19;;;;;;;62.17;36.05;;;;;;;;;;4996385;28;20053;-67
2023/09/09 06:53:44;;;;;;;59.67;33.42;;;;;;;;;;4996146;28;20509;-66
2023/09/09 06:56:10;;;;;;;58.50;36.22;;;;;;;;;;4996318;28;20723;-67
2023/09/09 06:58:35;;;;;;;66.07;35.60;;;;;;;;;;4997957;28;20566;-67
2023/09/09 07:01:02;;;;;;;61.40;36.72;;;;;;;;;;4996618;28;20050;-67
2023/09/09 07:03:28;;;;;;;67.07;36.35;;;;;;;;;;4993123;28;20052;-67
2023/09/09 07:05:53;;;;;;;67.82;35.65;;;;;;;;;;4994947;28;20516;-67
2023/09/09 07:08:19;;;;;;;61.63;35.55;;;;;;;;;;4990844;28;20038;-67
2023/09/09 07:10:49;;;;;;;64.03;34.63;;;;;;;;;;4996514;28;20471;-67
2023/09/09 07:13:15;;;;;;;56.42;33.10;;;;;;;;;;4999296;28;20034;-67
2023/09/09 07:15:40;;;;;;;62.30;35.28;;;;;;;;;;4996842;28;20048;-67
2023/09/09 07:18:06;;;;;;;57.47;33.30;;;;;;;;;;4982102;28;20043;-67
2023/09/09 07:20:31;;;;;;;57.85;29.15;;;;;;;;;;4998482;28;20030;-67
2023/09/09 07:22:56;;;;;;;62.67;31.63;;;;;;;;;;5001121;28;20050;-67
2023/09/09 07:25:22;;;;;;;58.30;30.45;;;;;;;;;;4975587;28;20712;-67
2023/09/09 07:27:47;;;;;;;44.55;25.60;;;;;;;;;;5000472;28;20038;-67
2023/09/09 07:30:12;;;;;;;49.55;26.45;;;;;;;;;;4995114;28;20073;-67
2023/09/09 07:32:38;;;;;;;42.70;25.25;;;;;;;;;;4992516;28;20038;-67
2023/09/09 07:35:04;;;;;;;40.58;24.45;;;;;;;;;;4998886;28;20030;-67
2023/09/09 07:37:29;;;;;;;44.10;23.92;;;;;;;;;;5000849;28;20038;-67
2023/09/09 07:39:58;;;;;;;37.22;23.20;;;;;;;;;;4994510;28;20420;-66
2023/09/09 07:42:24;;;;;;;36.88;22.73;;;;;;;;;;4991825;28;20136;-67
2023/09/09 07:44:49;;;;;;;38.70;22.40;;;;;;;;;;4997469;28;20117;-67
2023/09/09 07:47:15;;;;;;;35.58;21.95;;;;;;;;;;4999309;28;20385;-67
2023/09/09 07:49:40;;;;;;;32.00;19.85;;;;;;;;;;5002167;28;20066;-67
2023/09/09 07:52:05;;;;;;;31.02;17.80;;;;;;;;;;4988885;28;20045;-67
2023/09/09 07:54:31;;;;;;;24.17;15.32;;;;;;;;;;4982928;28;20126;-67
2023/09/09 07:56:58;;;;;;;25.40;16.25;;;;;;;;;;4987330;28;20030;-67
2023/09/09 07:59:28;;;;;;;22.55;14.75;;;;;;;;;;4980700;28;20100;-67
2023/09/09 08:01:54;;;;;;;21.27;14.70;;;;;;;;;;4974113;28;20038;-67
2023/09/09 08:04:19;;;;;;;20.05;12.85;;;;;;;;;;4979221;28;20057;-67
2023/09/09 08:06:46;;;;;;;20.88;12.52;;;;;;;;;;4984931;28;20097;-68
2023/09/09 08:09:12;;;;;;;21.58;11.65;;;;;;;;;;4988043;28;20042;-67
2023/09/09 08:11:37;;;;;;;16.25;10.25;;;;;;;;;;4999188;28;20120;-67
2023/09/09 08:14:02;;;;;;;19.80;10.75;;;;;;;;;;5001321;28;20117;-68
2023/09/09 08:16:28;;;;;;;23.55;9.93;;;;;;;;;;4999474;28;20137;-67
2023/09/09 08:18:54;;;;;;;16.45;9.82;;;;;;;;;;4995929;28;20636;-68
2023/09/09 08:21:19;;;;;;;19.90;9.55;;;;;;;;;;4983480;28;20046;-67
2023/09/09 08:23:45;;;;;;;14.25;9.88;;;;;;;;;;4970943;28;20581;-67
2023/09/09 08:26:12;;;;;;;18.83;10.15;;;;;;;;;;4978411;28;20041;-67
2023/09/09 08:28:37;;;;;;;17.30;9.75;;;;;;;;;;4988432;28;20052;-67
2023/09/09 08:31:03;;;;;;;12.88;8.07;;;;;;;;;;4986309;28;20042;-68
2023/09/09 08:33:28;;;;;;;10.02;6.93;;;;;;;;;;5004393;28;20050;-67
2023/09/09 08:35:58;;;;;;;14.68;7.35;;;;;;;;;;5001730;28;20037;-67
2023/09/09 08:38:23;;;;;;;16.25;7.55;;;;;;;;;;4995674;28;20033;-67
2023/09/09 08:41:03;;;;;;;13.50;7.20;;;;;;;;;;4991106;28;20065;-67
2023/09/09 08:43:37;;;;;;;13.70;7.63;;;;;;;;;;4993062;28;20078;-67
2023/09/09 08:46:16;;;;;;;14.38;6.65;;;;;;;;;;4999237;28;20058;-68
2023/09/09 08:48:43;;;;;;;12.63;6.88;;;;;;;;;;4982278;28;20038;-67
2023/09/09 08:51:13;;;;;;;11.20;6.68;;;;;;;;;;4991951;28;20045;-67
2023/09/09 08:53:40;;;;;;;11.93;6.97;;;;;;;;;;4993956;28;20034;-67
2023/09/09 08:56:06;;;;;;;16.42;7.40;;;;;;;;;;5000682;28;20693;-67
2023/09/09 08:58:32;;;;;;;12.65;7.32;;;;;;;;;;4996354;28;20046;-67
2023/09/09 09:00:59;;;;;;;12.85;6.53;;;;;;;;;;4997136;28;20070;-66
2023/09/09 09:03:26;;;;;;;13.63;6.70;;;;;;;;;;4995734;28;20038;-66
2023/09/09 09:05:54;;;;;;;12.95;7.00;;;;;;;;;;5001317;28;20061;-66
2023/09/09 09:08:19;;;;;;;20.77;8.30;;;;;;;;;;4992907;28;20044;-66
2023/09/09 09:10:47;;;;;;;12.23;6.35;;;;;;;;;;4991677;28;20046;-65
2023/09/09 09:13:13;;;;;;;12.57;6.80;;;;;;;;;;5001866;28;20034;-66
2023/09/09 09:15:40;;;;;;;15.05;7.57;;;;;;;;;;4999085;28;20038;-67
2023/09/09 09:18:07;;;;;;;11.95;7.00;;;;;;;;;;5001555;28;20092;-66
2023/09/09 09:20:33;;;;;;;11.68;6.70;;;;;;;;;;5000246;28;20491;-66
2023/09/09 09:23:04;;;;;;;12.13;6.88;;;;;;;;;;4994005;28;20037;-67
2023/09/09 09:25:37;;;;;;;14.18;7.15;;;;;;;;;;4998021;28;20531;-67
2023/09/09 09:28:03;;;;;;;11.90;7.00;;;;;;;;;;4995785;28;20138;-67
2023/09/09 09:30:29;;;;;;;14.57;7.07;;;;;;;;;;4998403;28;20715;-67
2023/09/09 09:32:56;;;;;;;21.77;7.47;;;;;;;;;;5001519;28;20042;-66
2023/09/09 09:35:32;;;;;;;10.40;6.80;;;;;;;;;;4999920;28;20415;-66
2023/09/09 09:37:59;;;;;;;16.33;7.00;;;;;;;;;;4994222;28;20656;-66
2023/09/09 09:40:26;;;;;;;14.15;6.63;;;;;;;;;;4978295;28;20600;-66
2023/09/09 09:42:51;;;;;;;13.18;6.63;;;;;;;;;;4988645;28;20036;-67
2023/09/09 09:45:18;;;;;;;11.82;6.72;;;;;;;;;;5001194;28;20042;-66
2023/09/09 09:47:48;;;;;;;14.48;6.43;;;;;;;;;;4991274;28;20042;-66
2023/09/09 09:50:18;;;;;;;13.50;6.22;;;;;;;;;;4992409;28;20117;-66
2023/09/09 09:52:48;;;;;;;13.40;6.35;;;;;;;;;;4997744;28;20603;-67
2023/09/09 09:55:17;;;;;;;13.52;6.65;;;;;;;;;;4998565;28;20038;-67
2023/09/09 09:57:45;;;;;;;12.52;6.72;;;;;;;;;;4994687;28;20046;-67
2023/09/09 10:00:12;;;;;;;10.18;6.63;;;;;;;;;;4992734;28;20044;-67
2023/09/09 10:02:41;;;;;;;16.95;6.65;;;;;;;;;;4983318;28;20045;-67
2023/09/09 10:05:12;;;;;;;13.05;6.15;;;;;;;;;;4976510;28;20122;-67
2023/09/09 10:07:42;;;;;;;12.02;6.43;;;;;;;;;;4979406;28;20133;-67
2023/09/09 10:10:11;;;;;;;14.93;5.90;;;;;;;;;;4988510;28;20042;-66
2023/09/09 10:12:51;;;;;;;15.80;6.50;;;;;;;;;;4976240;28;20125;-67
2023/09/09 10:15:18;;;;;;;11.63;6.55;;;;;;;;;;4975575;28;20042;-67
2023/09/09 10:17:44;;;;;;;12.32;5.80;;;;;;;;;;4987321;28;20044;-67
2023/09/09 10:20:11;;;;;;;13.00;6.18;;;;;;;;;;4991922;28;20495;-67
2023/09/09 10:22:36;;;;;;;11.40;6.47;;;;;;;;;;4985583;28;20042;-67
2023/09/09 10:25:03;;;;;;;12.10;5.88;;;;;;;;;;4986924;28;20047;-66
2023/09/09 10:27:29;;;;;;;15.05;6.28;;;;;;;;;;4998257;28;20038;-67
2023/09/09 10:29:57;;;;;;;15.90;6.35;;;;;;;;;;4987846;28;20420;-66
2023/09/09 10:32:25;;;;;;;11.55;6.15;;;;;;;;;;4990212;28;20026;-66
2023/09/09 10:34:52;;;;;;;10.02;6.80;;;;;;;;;;4992051;28;20049;-67
2023/09/09 10:37:18;;;;;;;17.80;6.80;;;;;;;;;;4992254;28;20038;-67
2023/09/09 10:39:47;;;;;;;13.35;7.38;;;;;;;;;;4995609;28;20062;-66
2023/09/09 10:42:13;;;;;;;14.15;7.15;;;;;;;;;;4998113;28;20565;-67
2023/09/09 10:44:39;;;;;;;12.25;6.47;;;;;;;;;;4993126;28;20037;-67
2023/09/09 10:47:07;;;;;;;14.18;6.50;;;;;;;;;;4988989;28;20026;-67
2023/09/09 10:49:33;;;;;;;13.23;6.03;;;;;;;;;;4982014;28;20044;-67
2023/09/09 10:51:58;;;;;;;14.68;6.47;;;;;;;;;;4974595;28;20792;-66
2023/09/09 10:54:25;;;;;;;13.32;6.10;;;;;;;;;;4993234;28;20052;-66
2023/09/09 10:56:54;;;;;;;13.43;6.40;;;;;;;;;;4991809;28;20049;-67
2023/09/09 10:59:28;;;;;;;16.50;6.60;;;;;;;;;;4994969;28;20526;-66
2023/09/09 11:02:18;;;;;;;11.18;6.43;;;;;;;;;;4997894;28;20069;-66
2023/09/09 11:04:57;;;;;;;11.65;6.68;;;;;;;;;;4987292;28;20083;-66
2023/09/09 11:07:22;;;;;;;11.15;6.22;;;;;;;;;;4972571;28;20125;-67
2023/09/09 11:09:52;;;;;;;11.60;6.80;;;;;;;;;;4977588;28;20042;-67
2023/09/09 11:12:24;;;;;;;12.80;6.97;;;;;;;;;;4978074;28;20400;-66
2023/09/09 11:14:58;;;;;;;9.98;6.70;;;;;;;;;;4971925;28;20506;-66
2023/09/09 11:17:27;;;;;;;8.00;5.68;;;;;;;;;;4978774;28;20030;-67
2023/09/09 11:19:53;;;;;;;12.30;6.45;;;;;;;;;;4970680;28;20614;-67
2023/09/09 11:22:19;;;;;;;12.70;6.10;;;;;;;;;;4973951;28;20058;-67
2023/09/09 11:24:45;;;;;;;8.15;6.15;;;;;;;;;;4978948;28;20045;-67
2023/09/09 11:27:11;;;;;;;10.23;5.47;;;;;;;;;;4989711;28;20064;-67
2023/09/09 11:29:36;;;;;;;10.10;5.50;;;;;;;;;;4997862;28;20084;-67
2023/09/09 11:32:02;;;;;;;13.65;5.43;;;;;;;;;;4992291;28;20113;-67
2023/09/09 11:34:29;;;;;;;10.50;5.18;;;;;;;;;;4991474;28;20119;-67
2023/09/09 11:36:55;;;;;;;15.02;5.20;;;;;;;;;;4993394;28;20149;-67
2023/09/09 11:39:20;;;;;;;9.15;4.60;;;;;;;;;;4997600;28;20073;-67
2023/09/09 11:41:45;;;;;;;9.73;4.95;;;;;;;;;;4994744;28;20111;-67
2023/09/09 11:44:11;;;;;;;11.55;5.10;;;;;;;;;;4995297;28;20117;-67
2023/09/09 11:46:41;;;;;;;10.35;5.00;;;;;;;;;;4993432;28;20069;-67
2023/09/09 11:49:07;;;;;;;8.30;4.75;;;;;;;;;;4977916;28;20057;-67
2023/09/09 11:51:34;;;;;;;12.15;5.15;;;;;;;;;;4986359;28;20037;-67
2023/09/09 11:53:59;;;;;;;10.65;4.93;;;;;;;;;;4973172;28;20046;-67
2023/09/09 11:56:26;;;;;;;6.82;4.40;;;;;;;;;;4981427;28;20037;-67
2023/09/09 11:58:52;;;;;;;6.35;4.47;;;;;;;;;;5000086;28;20042;-66
2023/09/09 12:01:22;;;;;;;9.45;4.80;;;;;;;;;;4990133;28;20038;-67
2023/09/09 12:03:49;;;;;;;9.45;4.63;;;;;;;;;;4980615;28;20064;-67
2023/09/09 12:06:17;;;;;;;7.63;4.50;;;;;;;;;;4990558;28;20035;-67
2023/09/09 12:08:42;;;;;;;7.57;4.60;;;;;;;;;;4991185;28;20038;-67
2023/09/09 12:11:10;;;;;;;8.32;5.47;;;;;;;;;;4991273;28;20038;-67
2023/09/09 12:13:37;;;;;;;6.07;4.60;;;;;;;;;;4996764;28;20074;-67
2023/09/09 12:16:05;;;;;;;10.45;4.90;;;;;;;;;;4984919;28;20044;-67
2023/09/09 12:18:30;;;;;;;9.50;5.10;;;;;;;;;;4996189;28;20038;-67
2023/09/09 12:21:09;;;;;;;10.57;4.95;;;;;;;;;;4990039;28;20207;-67
2023/09/09 12:23:37;;;;;;;9.07;4.75;;;;;;;;;;4978508;28;20031;-67
2023/09/09 12:26:10;;;;;;;12.43;5.15;;;;;;;;;;4997631;28;20534;-67
2023/09/09 12:28:35;;;;;;;;;;;;;;;;;;4993144;28;20076;-67
2023/09/09 12:31:01;;;;;;;10.43;5.07;;;;;;;;;;4991612;28;20004;-67
2023/09/09 12:33:28;;;;;;;8.25;5.10;;;;;;;;;;4999477;28;20104;-67
2023/09/09 12:35:54;;;;;;;10.15;5.43;;;;;;;;;;5000791;28;20049;-67
2023/09/09 12:38:20;;;;;;;8.77;4.97;;;;;;;;;;4998647;28;20034;-67
2023/09/09 12:40:47;;;;;;;5.78;5.18;;;;;;;;;;5000240;28;20526;-67
2023/09/09 12:43:12;;;;;;;11.98;5.63;;;;;;;;;;4994911;28;20046;-67
2023/09/09 12:45:51;;;;;;;7.97;5.05;;;;;;;;;;4992356;28;20044;-67
2023/09/09 12:48:17;;;;;;;11.13;4.40;;;;;;;;;;4996122;28;20523;-67
2023/09/09 12:50:44;;;;;;;5.78;4.38;;;;;;;;;;5001033;28;20157;-67
2023/09/09 12:53:10;;;;;;;13.85;4.93;;;;;;;;;;4993777;28;20137;-67
2023/09/09 12:55:35;;;;;;;8.32;4.50;;;;;;;;;;4992608;28;20140;-68
2023/09/09 12:58:01;;;;;;;13.73;5.53;;;;;;;;;;4991852;28;20038;-67
2023/09/09 13:00:26;;;;;;;6.28;4.88;;;;;;;;;;5000737;28;20046;-67
2023/09/09 13:02:52;;;;;;;11.30;5.75;;;;;;;;;;4987659;28;20104;-67
2023/09/09 13:05:18;;;;;;;7.90;4.30;;;;;;;;;;4993536;28;20031;-67
2023/09/09 13:07:44;;;;;;;6.68;4.32;;;;;;;;;;4981663;28;20559;-67
2023/09/09 13:10:09;;;;;;;7.45;4.75;;;;;;;;;;5000116;28;20042;-68
2023/09/09 13:12:35;;;;;;;11.25;4.65;;;;;;;;;;4999161;28;20038;-67
2023/09/09 13:15:00;;;;;;;10.70;4.78;;;;;;;;;;4981161;28;20067;-67
2023/09/09 13:17:25;;;;;;;6.18;4.28;;;;;;;;;;4982329;28;20026;-67
2023/09/09 13:19:51;;;;;;;6.38;4.50;;;;;;;;;;4982681;28;20411;-67
2023/09/09 13:22:16;;;;;;;5.18;4.10;;;;;;;;;;4999906;28;20053;-67
2023/09/09 13:24:41;;;;;;;8.60;4.28;;;;;;;;;;4990786;28;20049;-67
2023/09/09 13:27:07;;;;;;;7.32;4.45;;;;;;;;;;5000294;28;20125;-67
2023/09/09 13:29:34;;;;;;;9.80;4.28;;;;;;;;;;5005923;28;20029;-67
2023/09/09 13:31:59;;;;;;;7.53;4.90;;;;;;;;;;5006048;28;20041;-67
2023/09/09 13:34:24;;;;;;;9.32;4.50;;;;;;;;;;5000732;28;20038;-67
2023/09/09 13:36:50;;;;;;;7.70;4.72;;;;;;;;;;4997679;28;20042;-67
2023/09/09 13:39:15;;;;;;;7.85;4.50;;;;;;;;;;4992781;28;20118;-67
2023/09/09 13:41:40;;;;;;;9.50;4.40;;;;;;;;;;4995584;28;20026;-67
2023/09/09 13:44:06;;;;;;;7.82;4.38;;;;;;;;;;5002344;28;20053;-67
2023/09/09 13:46:31;;;;;;;8.05;4.78;;;;;;;;;;4997614;28;20129;-67
2023/09/09 13:48:57;;;;;;;8.50;4.22;;;;;;;;;;4991894;28;20037;-67
2023/09/09 13:51:22;;;;;;;7.45;4.35;;;;;;;;;;4996151;28;20038;-67
2023/09/09 13:53:47;;;;;;;6.82;4.40;;;;;;;;;;4996998;28;20052;-67
2023/09/09 13:56:13;;;;;;;8.73;4.55;;;;;;;;;;4995814;28;20022;-67
2023/09/09 13:58:39;;;;;;;9.43;4.32;;;;;;;;;;4999479;28;20038;-67
2023/09/09 14:01:04;;;;;;;11.30;4.85;;;;;;;;;;4982760;28;20034;-67
2023/09/09 14:03:30;;;;;;;9.55;4.53;;;;;;;;;;4984347;28;20117;-67
2023/09/09 14:05:58;;;;;;;10.75;4.57;;;;;;;;;;5004523;28;20033;-68
2023/09/09 14:08:24;;;;;;;8.15;4.70;;;;;;;;;;4990598;28;20036;-68
2023/09/09 14:10:49;;;;;;;6.45;4.88;;;;;;;;;;4995545;28;20034;-68
2023/09/09 14:13:14;;;;;;;14.82;4.70;;;;;;;;;;4999443;28;20042;-68
2023/09/09 14:15:40;;;;;;;8.10;4.60;;;;;;;;;;4977135;28;20062;-68
2023/09/09 14:18:05;;;;;;;10.27;4.30;;;;;;;;;;4999408;28;20078;-68